Time;durP1;ratioP1;P1;durP2;ratioP2;P2;SDS_P1;SDS_P2;PMS_P1;PMS_P2;Temp;Humidity;BMP_temperature;BMP_pressure;BME280_temperature;BME280_humidity;BME280_pressure;Samples;Min_cycle;Max_cycle;Signal;HPM_P1;HPM_P2
2021/11/10 00:00:06;;;;;;;8.03;5.90;;;0.30;96.30;;;;;;5030807;28;20222;-75
2021/11/10 00:02:31;;;;;;;8.93;5.27;;;0.40;96.30;;;;;;5029935;28;20267;-75
2021/11/10 00:04:57;;;;;;;6.10;5.10;;;0.30;96.30;;;;;;5032035;28;20949;-75
2021/11/10 00:07:22;;;;;;;9.40;5.47;;;0.30;96.30;;;;;;5032040;28;20172;-75
2021/11/10 00:09:48;;;;;;;11.67;6.60;;;0.50;96.30;;;;;;5030680;28;20551;-75
2021/11/10 00:12:13;;;;;;;10.80;5.90;;;0.60;96.30;;;;;;5033348;28;20644;-75
2021/11/10 00:14:39;;;;;;;8.73;6.10;;;0.50;96.30;;;;;;5034760;28;20176;-75
2021/11/10 00:17:04;;;;;;;9.43;5.97;;;0.60;96.30;;;;;;5035969;28;20229;-75
2021/11/10 00:19:30;;;;;;;6.60;5.07;;;0.60;96.30;;;;;;5035856;28;20558;-75
2021/11/10 00:21:55;;;;;;;6.63;5.93;;;0.60;96.30;;;;;;5033965;28;20684;-75
2021/11/10 00:24:21;;;;;;;9.10;5.63;;;0.60;96.30;;;;;;5034605;28;20180;-74
2021/11/10 00:26:46;;;;;;;7.27;4.53;;;0.40;96.30;;;;;;5035807;28;20180;-75
2021/11/10 00:29:12;;;;;;;8.33;5.00;;;0.30;96.30;;;;;;5035725;28;20172;-75
2021/11/10 00:31:37;;;;;;;8.17;4.80;;;0.10;96.30;;;;;;5033876;28;20196;-75
2021/11/10 00:34:03;;;;;;;8.53;4.40;;;0.00;96.30;;;;;;5035322;28;20176;-75
2021/11/10 00:36:29;;;;;;;6.70;4.43;;;0.00;96.30;;;;;;5035674;28;20176;-75
2021/11/10 00:38:54;;;;;;;11.17;5.13;;;0.10;96.30;;;;;;5035499;28;20533;-75
2021/11/10 00:41:20;;;;;;;7.23;4.70;;;0.10;96.30;;;;;;5034892;28;20250;-75
2021/11/10 00:43:46;;;;;;;10.20;5.00;;;0.10;96.30;;;;;;5035570;28;20199;-75
2021/11/10 00:46:11;;;;;;;8.63;5.43;;;0.10;96.30;;;;;;5034162;28;20214;-75
2021/11/10 00:48:37;;;;;;;10.33;5.83;;;0.10;96.30;;;;;;5035521;28;20621;-75
2021/11/10 00:51:04;;;;;;;8.63;5.53;;;0.40;96.30;;;;;;5034689;28;20192;-75
2021/11/10 00:53:29;;;;;;;6.37;4.30;;;0.30;96.30;;;;;;5035300;28;20417;-75
2021/11/10 00:55:55;;;;;;;6.80;5.10;;;0.20;96.30;;;;;;5033990;28;20762;-75
2021/11/10 00:58:20;;;;;;;9.53;5.00;;;0.10;96.30;;;;;;5034317;28;20211;-75
2021/11/10 05:01:37;;;;;;;22.27;14.63;;;1.60;96.30;;;;;;5527175;22;20522;-75
2021/11/10 05:04:05;;;;;;;21.97;16.63;;;1.60;96.30;;;;;;4976384;28;20414;-75
2021/11/10 05:06:30;;;;;;;22.63;17.67;;;1.70;96.30;;;;;;4969944;28;20529;-76
2021/11/10 05:08:56;;;;;;;24.67;16.47;;;1.70;96.30;;;;;;4940244;29;20783;-76
2021/11/10 05:11:22;;;;;;;22.60;16.37;;;1.70;96.30;;;;;;4947583;28;20204;-75
2021/11/10 05:13:48;;;;;;;21.20;14.90;;;1.70;96.30;;;;;;4937975;29;20466;-74
2021/11/10 05:16:14;;;;;;;22.30;15.90;;;1.80;96.30;;;;;;4938749;29;20222;-74
2021/11/10 05:18:39;;;;;;;20.00;15.00;;;1.80;96.30;;;;;;4921293;29;20476;-74
2021/11/10 05:36:30;;;;;;;24.67;17.20;;;1.70;96.30;;;;;;4973736;28;20468;-77
2021/11/10 05:38:56;;;;;;;25.40;14.33;;;1.80;96.30;;;;;;4956494;29;20775;-75
2021/11/10 05:41:21;;;;;;;31.77;20.77;;;1.80;96.30;;;;;;4960922;28;20465;-75
2021/11/10 05:43:47;;;;;;;19.27;13.77;;;1.80;96.30;;;;;;4955515;29;20186;-75
2021/11/10 05:46:13;;;;;;;22.63;14.90;;;1.70;96.30;;;;;;4956483;29;20171;-76
2021/11/10 05:48:39;;;;;;;23.17;14.23;;;1.70;96.30;;;;;;4955736;29;20182;-75
2021/11/10 05:51:05;;;;;;;22.20;15.03;;;1.70;96.30;;;;;;4954366;28;20203;-75
2021/11/10 05:53:32;;;;;;;15.90;11.57;;;1.70;96.30;;;;;;4955058;29;20183;-75
2021/11/10 05:55:57;;;;;;;26.50;14.93;;;1.70;96.30;;;;;;4956329;29;20449;-75
2021/11/10 05:58:24;;;;;;;20.37;14.03;;;1.70;96.30;;;;;;4956326;29;20411;-75
2021/11/10 06:00:51;;;;;;;19.00;13.27;;;1.70;96.30;;;;;;4954823;28;20206;-75
2021/11/10 06:03:17;;;;;;;22.53;14.63;;;1.70;96.30;;;;;;4959838;28;20929;-75
2021/11/10 06:05:42;;;;;;;21.87;15.03;;;1.70;96.30;;;;;;4963631;28;20516;-76
2021/11/10 06:08:08;;;;;;;21.43;15.60;;;1.70;96.30;;;;;;4964543;28;20925;-75
2021/11/10 06:10:34;;;;;;;22.67;15.90;;;1.70;96.30;;;;;;4974607;28;20178;-75
2021/11/10 06:12:59;;;;;;;21.70;16.57;;;1.60;96.30;;;;;;4974493;28;20194;-76
2021/11/10 06:15:25;;;;;;;25.27;16.43;;;1.70;96.30;;;;;;4957792;28;20179;-77
2021/11/10 06:17:50;;;;;;;22.00;16.23;;;1.70;96.30;;;;;;4975159;28;20186;-76
2021/11/10 06:20:16;;;;;;;26.63;17.43;;;1.70;96.30;;;;;;4974905;28;20178;-75
2021/11/10 06:22:42;;;;;;;22.20;16.90;;;1.60;96.30;;;;;;4946084;29;20261;-74
2021/11/10 06:25:09;;;;;;;27.17;19.07;;;1.60;96.30;;;;;;4938475;29;20175;-75
2021/11/10 06:27:37;;;;;;;26.93;20.07;;;1.70;96.30;;;;;;4955807;29;20415;-76
2021/11/10 06:30:04;;;;;;;30.03;17.93;;;1.80;96.30;;;;;;4955457;29;20497;-76
2021/11/10 06:32:30;;;;;;;30.20;20.00;;;2.00;96.30;;;;;;4955229;28;20568;-76
2021/11/10 06:34:55;;;;;;;29.20;17.20;;;2.10;96.30;;;;;;4955755;28;20434;-75
2021/11/10 06:37:21;;;;;;;19.27;11.57;;;2.20;96.30;;;;;;4962885;28;20186;-75
2021/11/10 06:39:46;;;;;;;23.67;16.60;;;2.20;96.30;;;;;;4974635;28;20210;-76
2021/11/10 06:42:12;;;;;;;23.63;17.17;;;2.30;96.30;;;;;;4956449;28;20560;-76
2021/11/10 06:44:37;;;;;;;20.53;16.27;;;2.30;96.30;;;;;;4974549;28;20539;-76
2021/11/10 06:47:03;;;;;;;28.77;20.83;;;2.30;96.30;;;;;;4974235;28;20664;-75
2021/11/10 06:49:30;;;;;;;24.57;17.37;;;2.30;96.30;;;;;;4974527;28;20162;-75
2021/11/10 06:51:57;;;;;;;27.37;16.80;;;2.30;96.30;;;;;;4956547;28;20445;-75
2021/11/10 06:54:23;;;;;;;26.00;19.50;;;2.30;96.30;;;;;;4957375;28;20473;-76
2021/11/10 06:56:49;;;;;;;23.13;16.10;;;2.30;96.30;;;;;;4974547;28;20784;-76
2021/11/10 06:59:16;;;;;;;28.70;19.57;;;2.30;96.30;;;;;;4974346;28;20798;-76
2021/11/10 07:01:41;;;;;;;24.80;17.07;;;2.30;96.30;;;;;;4956508;28;20874;-75
2021/11/10 07:04:07;;;;;;;22.90;16.50;;;2.40;96.30;;;;;;4954453;28;20517;-76
2021/11/10 07:06:32;;;;;;;23.33;16.87;;;2.50;96.30;;;;;;4956657;28;20346;-75
2021/11/10 07:08:58;;;;;;;22.93;17.00;;;2.50;96.30;;;;;;4956753;28;20189;-75
2021/11/10 07:11:23;;;;;;;23.53;15.67;;;2.50;96.30;;;;;;4959908;28;20394;-76
2021/11/10 07:13:49;;;;;;;20.37;14.67;;;2.40;96.30;;;;;;4954770;29;20171;-75
2021/11/10 07:16:15;;;;;;;19.37;14.80;;;2.50;96.30;;;;;;4937690;29;20183;-75
2021/11/10 07:18:40;;;;;;;25.70;17.70;;;2.60;96.30;;;;;;4954914;29;20206;-75
2021/11/10 07:21:08;;;;;;;25.13;14.90;;;2.50;96.30;;;;;;4954423;28;20210;-76
2021/11/10 07:23:34;;;;;;;21.20;15.53;;;2.60;96.30;;;;;;4950892;28;20175;-76
2021/11/10 07:26:00;;;;;;;21.63;15.47;;;2.60;96.30;;;;;;4973903;28;20425;-76
2021/11/10 07:28:26;;;;;;;21.27;14.87;;;2.70;96.30;;;;;;4956525;28;20832;-75
2021/11/10 07:30:51;;;;;;;23.17;15.07;;;2.70;96.30;;;;;;4973576;28;20236;-76
2021/11/10 07:33:17;;;;;;;20.30;13.73;;;2.80;96.30;;;;;;4955836;28;20178;-75
2021/11/10 07:35:43;;;;;;;19.40;14.00;;;2.80;96.30;;;;;;4973738;28;20190;-75
2021/11/10 07:38:09;;;;;;;19.53;14.63;;;2.90;96.30;;;;;;4973755;28;20225;-76
2021/11/10 07:40:36;;;;;;;22.53;14.07;;;2.90;96.30;;;;;;4973530;28;20476;-76
2021/11/10 07:43:02;;;;;;;18.00;14.20;;;3.00;96.30;;;;;;4973056;28;20772;-76
2021/11/10 07:45:33;;;;;;;22.60;15.13;;;3.10;96.30;;;;;;4973589;28;20414;-76
2021/11/10 07:47:59;;;;;;;17.93;14.23;;;3.20;96.30;;;;;;4956447;28;20410;-77
2021/11/10 07:50:26;;;;;;;18.70;13.30;;;3.30;96.30;;;;;;4973547;28;20460;-76
2021/11/10 07:52:52;;;;;;;16.93;12.77;;;3.30;96.30;;;;;;4972979;28;20433;-76
2021/11/10 07:55:19;;;;;;;19.10;14.27;;;3.30;96.30;;;;;;4956035;28;20426;-77
2021/11/10 07:57:44;;;;;;;18.97;13.97;;;3.50;96.30;;;;;;4973323;28;20182;-77
2021/11/10 08:00:14;;;;;;;21.50;12.83;;;3.50;96.30;;;;;;4973377;28;20513;-75
2021/11/10 08:02:40;;;;;;;21.27;14.50;;;3.60;96.30;;;;;;4972935;28;20213;-76
2021/11/10 08:05:06;;;;;;;16.50;11.50;;;3.70;96.30;;;;;;4973370;28;20417;-76
2021/11/10 08:07:32;;;;;;;18.00;12.57;;;3.70;96.30;;;;;;4973313;28;20428;-76
2021/11/10 08:09:58;;;;;;;17.37;10.90;;;3.70;96.30;;;;;;4973706;28;20409;-76
2021/11/10 08:12:23;;;;;;;18.33;12.03;;;3.70;96.30;;;;;;4973043;28;20197;-77
2021/11/10 08:14:49;;;;;;;16.00;11.50;;;3.90;96.30;;;;;;4973256;28;20174;-77
2021/11/10 08:17:15;;;;;;;14.60;10.30;;;4.10;96.30;;;;;;4973223;28;20228;-77
2021/11/10 08:19:41;;;;;;;15.27;10.20;;;4.20;96.30;;;;;;4973308;28;20178;-76
2021/11/10 08:22:06;;;;;;;15.70;11.50;;;4.30;96.30;;;;;;4972649;28;20512;-76
2021/11/10 08:24:32;;;;;;;16.93;10.53;;;4.50;96.30;;;;;;4973321;28;20181;-76
2021/11/10 08:26:58;;;;;;;17.87;13.30;;;4.70;96.30;;;;;;4955411;28;20601;-76
2021/11/10 08:29:24;;;;;;;16.60;10.80;;;4.70;96.30;;;;;;4973358;28;20417;-76
2021/11/10 08:31:51;;;;;;;20.77;13.27;;;4.70;96.30;;;;;;4973566;28;20475;-76
2021/11/10 08:34:17;;;;;;;16.80;11.40;;;4.80;96.30;;;;;;4976887;28;20182;-76
2021/11/10 08:36:43;;;;;;;20.00;11.00;;;5.00;96.30;;;;;;4976882;28;20432;-76
2021/11/10 08:39:09;;;;;;;15.80;10.10;;;4.90;96.30;;;;;;4976930;28;20440;-76
2021/11/10 08:41:34;;;;;;;17.60;10.33;;;4.80;96.30;;;;;;4976151;28;20989;-76
2021/11/10 08:44:00;;;;;;;17.93;10.73;;;4.80;96.30;;;;;;4976857;28;20228;-76
2021/11/10 08:46:27;;;;;;;14.67;10.33;;;4.60;96.30;;;;;;4959426;28;20657;-76
2021/11/10 08:48:55;;;;;;;15.00;10.90;;;4.70;96.30;;;;;;4976808;28;20167;-76
2021/11/10 08:51:22;;;;;;;17.30;9.80;;;4.60;96.30;;;;;;4975933;28;20436;-76
2021/11/10 08:53:48;;;;;;;13.00;10.30;;;4.60;96.30;;;;;;4976716;28;20413;-75
2021/11/10 08:56:14;;;;;;;17.80;11.77;;;4.70;96.30;;;;;;4976528;28;20409;-75
2021/11/10 08:58:39;;;;;;;12.03;9.43;;;4.70;96.30;;;;;;4976477;28;20436;-76
2021/11/10 09:01:05;;;;;;;20.60;11.87;;;4.70;96.30;;;;;;4958456;28;20210;-75
2021/11/10 09:03:31;;;;;;;14.93;11.87;;;4.90;96.30;;;;;;4959240;28;20185;-76
2021/11/10 09:05:57;;;;;;;16.17;10.53;;;5.10;96.30;;;;;;4959011;28;20185;-76
2021/11/10 09:08:26;;;;;;;15.60;10.80;;;5.20;96.30;;;;;;4976181;28;20445;-76
2021/11/10 09:10:52;;;;;;;14.80;9.60;;;5.30;96.30;;;;;;4976189;28;20912;-75
2021/11/10 09:13:18;;;;;;;17.33;11.30;;;5.40;96.30;;;;;;4958389;28;21028;-75
2021/11/10 09:15:44;;;;;;;14.27;10.57;;;5.50;96.30;;;;;;4976340;28;20418;-76
2021/11/10 09:18:10;;;;;;;17.33;12.20;;;5.60;96.30;;;;;;4958710;28;20832;-76
2021/11/10 09:20:37;;;;;;;13.47;9.83;;;5.70;96.30;;;;;;4974923;28;20416;-76
2021/11/10 09:23:05;;;;;;;19.13;10.63;;;5.70;96.30;;;;;;4958025;28;20181;-77
2021/11/10 09:25:33;;;;;;;11.73;9.27;;;5.80;96.30;;;;;;4975876;28;20406;-75
2021/11/10 09:28:00;;;;;;;12.07;10.20;;;5.80;96.30;;;;;;4975853;28;20413;-76
2021/11/10 09:30:28;;;;;;;18.47;10.37;;;5.80;96.30;;;;;;4976119;28;20421;-75
2021/11/10 09:32:55;;;;;;;24.83;12.30;;;5.80;96.30;;;;;;4957858;28;20929;-77
2021/11/10 09:35:22;;;;;;;14.20;9.07;;;6.00;96.30;;;;;;4975739;28;20536;-76
2021/11/10 09:37:52;;;;;;;14.00;9.80;;;6.00;96.30;;;;;;4975700;28;20424;-76
2021/11/10 09:40:21;;;;;;;13.43;9.33;;;6.00;96.30;;;;;;4975689;28;20410;-77
2021/11/10 09:42:46;;;;;;;12.97;8.90;;;5.90;96.30;;;;;;4974250;28;20464;-76
2021/11/10 09:45:15;;;;;;;13.53;9.70;;;5.90;96.30;;;;;;4975083;28;20406;-76
2021/11/10 09:47:42;;;;;;;14.37;10.17;;;6.10;96.30;;;;;;4975615;28;20170;-76
2021/11/10 09:50:10;;;;;;;13.33;9.70;;;6.10;96.30;;;;;;4975546;28;20893;-76
2021/11/10 09:52:36;;;;;;;13.43;9.93;;;6.20;96.30;;;;;;4974980;28;20444;-76
2021/11/10 09:55:07;;;;;;;14.93;10.50;;;6.10;96.30;;;;;;4975512;28;20402;-76
2021/11/10 09:57:34;;;;;;;13.00;9.03;;;6.20;96.30;;;;;;4975382;28;20398;-75
2021/11/10 10:00:00;;;;;;;14.30;9.50;;;6.10;96.30;;;;;;4975378;28;20423;-75
2021/11/10 10:02:27;;;;;;;10.17;8.10;;;6.20;96.30;;;;;;4974788;28;20457;-75
2021/11/10 10:04:53;;;;;;;15.10;8.83;;;6.20;96.30;;;;;;4958072;28;20543;-77
2021/11/10 10:07:18;;;;;;;11.33;9.57;;;6.40;96.30;;;;;;4975482;28;20507;-77
2021/11/10 10:09:44;;;;;;;11.77;9.07;;;6.60;96.30;;;;;;4975076;28;20917;-76
2021/11/10 10:12:12;;;;;;;12.70;9.17;;;6.70;96.30;;;;;;4974318;28;20693;-73
2021/11/10 10:14:37;;;;;;;12.47;8.87;;;7.10;96.30;;;;;;4975009;28;20174;-74
2021/11/10 10:17:07;;;;;;;12.27;8.40;;;7.40;96.30;;;;;;4974729;28;20512;-74
2021/11/10 10:19:41;;;;;;;13.00;8.40;;;7.40;96.30;;;;;;4974941;28;20588;-74
2021/11/10 10:22:06;;;;;;;14.83;8.43;;;7.10;96.30;;;;;;4974110;28;20540;-73
2021/11/10 10:24:53;;;;;;;12.13;8.93;;;7.10;96.30;;;;;;4974810;28;20828;-73
2021/11/10 10:27:31;;;;;;;13.00;9.50;;;7.00;96.30;;;;;;4974846;28;20181;-74
2021/11/10 10:30:21;;;;;;;15.80;9.63;;;7.10;96.30;;;;;;4974772;28;20409;-73
2021/11/10 10:32:52;;;;;;;9.70;8.07;;;7.40;96.30;;;;;;4974037;28;20438;-74
2021/11/10 10:35:40;;;;;;;11.97;8.27;;;7.30;96.30;;;;;;4974426;28;20421;-73
2021/11/10 10:38:09;;;;;;;10.60;7.30;;;7.10;96.30;;;;;;4974635;28;20508;-73
2021/11/10 10:40:37;;;;;;;12.50;7.70;;;7.00;96.30;;;;;;4974551;28;20965;-73
2021/11/10 10:43:03;;;;;;;16.93;7.90;;;7.50;96.30;;;;;;4973914;28;20835;-73
2021/11/10 10:45:32;;;;;;;10.93;8.37;;;7.70;96.30;;;;;;4974517;28;20952;-73
2021/11/10 10:48:04;;;;;;;12.90;8.67;;;7.70;96.30;;;;;;4974515;28;20409;-73
2021/11/10 10:50:40;;;;;;;11.50;8.07;;;7.50;96.30;;;;;;4974342;28;20402;-73
2021/11/10 10:53:07;;;;;;;13.77;9.90;;;7.50;96.30;;;;;;4973591;28;20401;-73
2021/11/10 10:55:36;;;;;;;9.63;8.13;;;7.50;96.30;;;;;;4973070;28;20759;-75
2021/11/10 10:58:05;;;;;;;11.67;9.37;;;7.60;96.30;;;;;;4974123;28;20759;-76
2021/11/10 11:00:32;;;;;;;16.60;10.93;;;7.60;96.30;;;;;;4973831;28;20908;-75
2021/11/10 11:03:15;;;;;;;14.33;7.97;;;7.70;96.30;;;;;;4973129;28;21239;-75
2021/11/10 11:05:44;;;;;;;9.80;8.40;;;7.70;96.30;;;;;;4973692;28;20405;-75
2021/11/10 11:08:30;;;;;;;11.73;8.20;;;7.80;96.30;;;;;;4956322;28;20414;-73
2021/11/10 11:10:58;;;;;;;14.97;9.20;;;7.40;96.30;;;;;;4973509;28;20432;-74
2021/11/10 11:13:47;;;;;;;14.27;8.60;;;7.60;96.30;;;;;;4973752;28;20410;-73
2021/11/10 11:16:19;;;;;;;12.97;8.93;;;7.90;96.30;;;;;;4955947;28;20437;-76
2021/11/10 11:18:46;;;;;;;11.47;8.30;;;8.10;96.30;;;;;;4973728;28;20398;-76
2021/11/10 11:21:24;;;;;;;12.03;8.20;;;7.90;96.30;;;;;;4972938;28;20468;-76
2021/11/10 11:23:50;;;;;;;9.93;8.00;;;7.90;96.30;;;;;;4956368;28;20429;-75
2021/11/10 11:26:34;;;;;;;12.83;7.43;;;7.80;96.30;;;;;;4954227;28;20403;-75
2021/11/10 11:29:25;;;;;;;12.20;8.37;;;7.70;96.30;;;;;;4956202;28;20452;-75
2021/11/10 11:31:54;;;;;;;11.90;7.87;;;7.60;96.30;;;;;;4972979;28;20448;-75
2021/11/10 11:34:20;;;;;;;12.30;8.90;;;7.70;96.30;;;;;;4973538;28;20417;-76
2021/11/10 11:36:55;;;;;;;10.00;7.67;;;7.60;96.30;;;;;;4973553;28;20408;-75
2021/11/10 11:39:23;;;;;;;11.20;9.30;;;7.90;96.30;;;;;;4973660;28;20393;-75
2021/11/10 11:41:50;;;;;;;14.57;9.43;;;8.20;96.30;;;;;;4972883;28;20953;-76
2021/11/10 11:44:18;;;;;;;12.50;8.80;;;8.40;96.30;;;;;;4973481;28;20409;-75
2021/11/10 11:46:45;;;;;;;13.23;9.60;;;8.60;96.30;;;;;;4973507;28;20449;-76
2021/11/10 11:49:14;;;;;;;16.70;9.53;;;8.90;96.30;;;;;;4973027;28;20413;-75
2021/11/10 11:51:40;;;;;;;11.87;8.90;;;8.80;96.30;;;;;;4972637;28;20524;-75
2021/11/10 11:54:08;;;;;;;11.30;8.30;;;8.40;96.30;;;;;;4973172;28;20417;-75
2021/11/10 11:56:34;;;;;;;14.00;9.57;;;8.70;96.30;;;;;;4956087;28;20430;-74
2021/11/10 11:59:01;;;;;;;14.20;10.17;;;9.10;96.30;;;;;;4973089;28;20421;-73
2021/11/10 12:01:30;;;;;;;16.80;9.70;;;9.10;96.30;;;;;;4972579;28;20461;-73
2021/11/10 12:04:07;;;;;;;17.90;11.80;;;9.00;96.30;;;;;;4973148;28;20816;-73
2021/11/10 12:06:43;;;;;;;14.80;9.73;;;9.30;96.30;;;;;;4972912;28;20948;-74
2021/11/10 12:09:17;;;;;;;13.73;8.90;;;9.10;96.30;;;;;;4962942;28;20425;-73
2021/11/10 12:11:48;;;;;;;14.50;7.70;;;9.00;96.30;;;;;;4953276;28;20434;-76
2021/11/10 12:14:19;;;;;;;12.53;8.23;;;8.90;96.30;;;;;;4962435;28;20940;-74
2021/11/10 12:16:44;;;;;;;15.10;8.90;;;9.00;96.30;;;;;;4958867;28;20468;-77
2021/11/10 12:19:11;;;;;;;12.23;9.87;;;9.00;96.30;;;;;;4972931;28;20457;-74
2021/11/10 12:21:40;;;;;;;15.97;9.20;;;8.90;96.30;;;;;;4972432;28;20213;-73
2021/11/10 12:24:09;;;;;;;12.30;8.20;;;8.90;96.30;;;;;;4973100;28;20460;-73
2021/11/10 12:27:05;;;;;;;12.17;8.83;;;8.50;96.30;;;;;;4973219;28;20910;-73
2021/11/10 12:29:51;;;;;;;16.40;9.87;;;8.60;96.30;;;;;;4953887;29;20883;-75
2021/11/10 12:32:18;;;;;;;14.47;9.23;;;8.50;96.30;;;;;;4953232;28;20433;-74
2021/11/10 12:34:54;;;;;;;14.23;9.80;;;8.70;96.30;;;;;;4953600;29;20835;-74
2021/11/10 12:37:29;;;;;;;10.10;8.50;;;8.50;96.30;;;;;;4953887;29;20454;-73
2021/11/10 12:40:29;;;;;;;18.87;11.57;;;8.60;96.30;;;;;;4955658;28;21221;-73
2021/11/10 12:43:00;;;;;;;17.50;10.43;;;8.50;96.30;;;;;;4955785;28;20523;-73
2021/11/10 12:45:37;;;;;;;12.90;9.97;;;8.50;96.30;;;;;;4972845;28;20406;-74
2021/11/10 12:48:07;;;;;;;15.70;10.33;;;8.40;96.30;;;;;;4972823;28;20462;-73
2021/11/10 12:50:39;;;;;;;13.50;10.33;;;8.10;96.30;;;;;;4972348;28;20909;-74
2021/11/10 12:53:11;;;;;;;16.00;10.67;;;7.80;96.30;;;;;;4972111;28;20424;-74
2021/11/10 12:55:52;;;;;;;13.17;11.17;;;7.80;96.30;;;;;;4972566;28;21142;-74
2021/11/10 12:58:22;;;;;;;13.90;9.87;;;7.80;96.30;;;;;;4972795;28;20501;-75
2021/11/10 13:00:50;;;;;;;13.70;9.70;;;7.90;96.30;;;;;;4972236;28;20464;-73
2021/11/10 13:03:29;;;;;;;10.73;8.60;;;8.00;96.30;;;;;;4971940;28;20483;-74
2021/11/10 13:06:26;;;;;;;13.53;9.57;;;7.80;96.30;;;;;;4956529;28;20420;-73
2021/11/10 13:09:02;;;;;;;13.63;9.07;;;7.80;96.30;;;;;;4954205;28;20890;-73
2021/11/10 13:11:36;;;;;;;12.20;9.40;;;7.70;96.30;;;;;;4971464;28;20440;-78
2021/11/10 13:14:08;;;;;;;12.53;10.40;;;7.70;96.30;;;;;;4954389;28;20429;-75
2021/11/10 13:16:36;;;;;;;13.03;9.43;;;7.50;96.30;;;;;;4952178;28;20770;-75
2021/11/10 13:19:02;;;;;;;12.63;9.97;;;7.40;96.30;;;;;;4955421;28;20565;-75
2021/11/10 13:21:27;;;;;;;15.50;10.97;;;7.60;96.30;;;;;;4954536;28;20553;-75
2021/11/10 13:24:02;;;;;;;12.50;9.90;;;7.40;96.30;;;;;;4969785;28;21251;-79
2021/11/10 13:26:28;;;;;;;15.33;10.17;;;7.40;96.30;;;;;;4975986;28;20166;-75
2021/11/10 13:28:55;;;;;;;13.20;9.60;;;7.20;96.30;;;;;;4975923;28;20746;-76
2021/11/10 13:31:20;;;;;;;14.47;10.13;;;7.10;96.30;;;;;;4975173;28;20213;-75
2021/11/10 13:33:46;;;;;;;16.80;9.13;;;7.00;96.30;;;;;;4975814;28;20414;-75
2021/11/10 13:36:23;;;;;;;14.53;10.57;;;7.10;96.30;;;;;;4958315;28;20214;-75
2021/11/10 13:39:04;;;;;;;14.50;10.13;;;7.20;96.30;;;;;;4958466;28;20514;-75
2021/11/10 13:41:42;;;;;;;15.10;9.43;;;7.00;96.30;;;;;;4957724;28;20514;-75
2021/11/10 13:44:13;;;;;;;15.07;10.50;;;7.10;96.30;;;;;;4975594;28;20447;-77
2021/11/10 13:46:48;;;;;;;14.17;10.27;;;7.10;96.30;;;;;;4975491;28;20417;-77
2021/11/10 13:49:50;;;;;;;19.73;10.80;;;7.20;96.30;;;;;;4975316;28;20517;-77
2021/11/10 13:52:22;;;;;;;16.20;10.50;;;7.20;96.30;;;;;;4953879;28;20937;-77
2021/11/10 13:54:51;;;;;;;17.10;11.13;;;7.10;96.30;;;;;;4975143;28;20446;-77
2021/11/10 13:57:20;;;;;;;15.67;10.43;;;7.20;96.30;;;;;;4957825;28;20790;-77
2021/11/10 13:59:54;;;;;;;13.10;10.20;;;7.20;96.30;;;;;;4957349;28;20438;-77
2021/11/10 14:02:35;;;;;;;12.10;9.70;;;7.20;96.30;;;;;;4974165;28;20825;-77
2021/11/10 14:05:04;;;;;;;15.53;10.27;;;7.20;96.30;;;;;;4975334;28;20469;-76
2021/11/10 14:07:32;;;;;;;12.07;10.33;;;7.00;96.30;;;;;;4975039;28;20425;-76
2021/11/10 14:10:09;;;;;;;13.30;10.03;;;6.80;96.30;;;;;;4974987;28;20418;-76
2021/11/10 14:12:47;;;;;;;13.37;10.73;;;6.80;96.30;;;;;;4974599;28;20476;-76
2021/11/10 14:15:21;;;;;;;16.90;10.70;;;6.60;96.30;;;;;;4975104;28;20425;-76
2021/11/10 14:17:49;;;;;;;15.60;11.90;;;6.50;96.30;;;;;;4974893;28;20413;-77
2021/11/10 14:20:53;;;;;;;15.10;10.63;;;6.50;96.30;;;;;;4957594;28;20424;-76
2021/11/10 14:23:29;;;;;;;16.83;11.73;;;6.40;96.30;;;;;;4953705;28;20812;-75
2021/11/10 14:26:04;;;;;;;24.80;14.20;;;6.40;96.30;;;;;;4974720;28;20598;-75
2021/11/10 14:28:36;;;;;;;16.17;11.93;;;6.30;96.30;;;;;;4974806;28;20909;-75
2021/11/10 14:31:08;;;;;;;20.27;12.83;;;6.30;96.30;;;;;;4973455;28;20421;-75
2021/11/10 14:33:36;;;;;;;19.40;13.20;;;6.30;96.30;;;;;;4957424;28;20456;-75
2021/11/10 14:36:17;;;;;;;20.00;13.90;;;6.30;96.30;;;;;;4974534;28;20512;-76
2021/11/10 14:38:46;;;;;;;18.97;13.27;;;6.20;96.30;;;;;;4955595;28;20425;-76
2021/11/10 14:41:15;;;;;;;21.67;14.20;;;6.10;96.30;;;;;;4965727;28;20549;-77
2021/11/10 14:43:48;;;;;;;23.43;15.03;;;6.00;96.30;;;;;;4956414;28;20826;-75
2021/11/10 14:46:29;;;;;;;23.70;14.00;;;6.00;96.30;;;;;;4974751;28;20435;-75
2021/11/10 14:49:09;;;;;;;21.40;14.13;;;5.90;96.30;;;;;;4974539;28;20960;-75
2021/11/10 14:51:46;;;;;;;23.40;14.83;;;5.80;96.30;;;;;;4973670;28;20488;-75
2021/11/10 14:54:14;;;;;;;22.57;14.10;;;5.70;96.30;;;;;;4974458;28;20453;-76
2021/11/10 14:56:55;;;;;;;20.20;12.27;;;5.60;96.30;;;;;;4974273;28;20424;-75
2021/11/10 14:59:27;;;;;;;24.37;15.57;;;5.50;96.30;;;;;;4956855;28;20472;-76
2021/11/10 15:01:55;;;;;;;28.53;17.20;;;5.50;96.30;;;;;;4973272;28;20476;-75
2021/11/10 15:04:23;;;;;;;19.03;14.20;;;5.40;96.30;;;;;;4974125;28;20414;-75
2021/11/10 15:07:07;;;;;;;25.87;17.33;;;5.30;96.30;;;;;;4974189;28;20847;-77
2021/11/10 15:09:33;;;;;;;23.03;13.93;;;5.20;96.30;;;;;;4974103;28;20440;-77
2021/11/10 15:12:00;;;;;;;29.60;15.97;;;5.00;96.30;;;;;;4973123;28;20440;-77
2021/11/10 15:14:36;;;;;;;22.77;14.57;;;5.00;96.30;;;;;;4973581;28;20796;-77
2021/11/10 15:17:21;;;;;;;21.60;15.00;;;4.90;96.30;;;;;;4937488;29;20533;-77
2021/11/10 15:20:10;;;;;;;19.40;12.53;;;4.80;96.30;;;;;;4964345;28;20456;-75
2021/11/10 15:23:00;;;;;;;25.63;16.97;;;4.70;96.30;;;;;;4973067;28;20907;-75
2021/11/10 15:25:31;;;;;;;24.33;16.70;;;4.70;96.30;;;;;;4963868;28;20454;-76
2021/11/10 15:28:02;;;;;;;24.53;15.77;;;4.70;96.30;;;;;;4958414;28;20456;-73
2021/11/10 15:30:31;;;;;;;23.23;16.30;;;4.50;96.30;;;;;;4973268;28;20485;-74
2021/11/10 15:32:59;;;;;;;27.50;16.67;;;4.50;96.30;;;;;;4966990;28;20585;-74
2021/11/10 15:35:27;;;;;;;23.90;17.00;;;4.40;96.30;;;;;;4972635;28;20619;-73
2021/11/10 15:37:53;;;;;;;32.53;20.13;;;4.30;96.30;;;;;;4954974;28;20521;-74
2021/11/10 15:40:20;;;;;;;28.53;19.63;;;4.20;96.30;;;;;;4949023;28;21120;-73
2021/11/10 15:42:46;;;;;;;30.53;20.83;;;4.20;96.30;;;;;;4972016;28;20469;-74
2021/11/10 15:45:15;;;;;;;34.87;23.37;;;4.00;96.30;;;;;;4968599;28;20464;-74
2021/11/10 15:47:42;;;;;;;46.80;31.27;;;3.90;96.30;;;;;;4956623;28;20418;-73
2021/11/10 15:50:08;;;;;;;39.90;23.33;;;3.80;96.30;;;;;;4973940;28;20422;-74
2021/11/10 15:52:35;;;;;;;60.00;38.47;;;3.80;96.30;;;;;;4973347;28;20446;-74
2021/11/10 15:55:00;;;;;;;95.63;53.10;;;3.80;96.30;;;;;;4973932;28;20417;-74
2021/11/10 15:57:27;;;;;;;41.50;25.37;;;3.80;96.30;;;;;;4974150;28;20787;-74
2021/11/10 15:59:53;;;;;;;36.40;24.53;;;3.70;96.30;;;;;;4973285;28;20710;-74
2021/11/10 16:02:20;;;;;;;37.03;23.00;;;3.70;96.30;;;;;;4973462;28;20560;-74
2021/11/10 16:04:46;;;;;;;32.30;20.40;;;3.60;96.30;;;;;;4972883;28;20204;-74
2021/11/10 16:07:12;;;;;;;42.30;23.07;;;3.50;96.30;;;;;;4951243;28;20981;-73
2021/11/10 16:09:39;;;;;;;31.87;20.97;;;3.40;96.30;;;;;;4973617;28;20602;-74
2021/11/10 16:12:06;;;;;;;35.70;21.60;;;3.40;96.30;;;;;;4955842;28;20209;-75
2021/11/10 16:14:32;;;;;;;45.63;23.17;;;3.50;96.30;;;;;;4973716;28;20413;-74
2021/11/10 16:16:57;;;;;;;45.93;26.30;;;3.40;96.30;;;;;;4974121;28;20833;-74
2021/11/10 16:19:23;;;;;;;40.03;22.10;;;3.30;96.30;;;;;;4973087;28;20213;-74
2021/11/10 16:21:48;;;;;;;30.20;19.63;;;3.30;96.30;;;;;;4953950;28;20214;-74
2021/11/10 16:24:15;;;;;;;36.63;19.27;;;3.20;96.30;;;;;;4954532;29;20229;-74
2021/11/10 16:26:41;;;;;;;32.23;20.37;;;3.20;96.30;;;;;;4937248;29;20251;-74
2021/11/10 16:29:07;;;;;;;28.23;18.20;;;3.20;96.30;;;;;;4953961;28;20418;-75
2021/11/10 16:34:17;;;;;;;32.77;19.40;;;3.20;96.30;;;;;;4973453;28;20468;-74
2021/11/10 16:36:42;;;;;;;27.53;17.67;;;3.10;96.30;;;;;;4973011;28;20421;-74
2021/11/10 16:39:08;;;;;;;33.40;18.63;;;3.10;96.30;;;;;;4972734;28;20193;-74
2021/11/10 16:41:33;;;;;;;49.10;32.13;;;3.10;96.30;;;;;;4972096;28;20206;-73
2021/11/10 16:43:59;;;;;;;32.83;19.77;;;3.00;96.30;;;;;;4972751;28;20180;-74
2021/11/10 16:46:24;;;;;;;33.30;21.00;;;3.00;96.30;;;;;;4972933;28;20630;-74
2021/11/10 16:48:50;;;;;;;42.70;27.17;;;2.90;96.30;;;;;;4972830;28;20587;-74
2021/11/10 16:51:15;;;;;;;36.50;24.17;;;2.90;96.30;;;;;;4956394;28;20202;-74
2021/11/10 16:53:41;;;;;;;32.83;21.10;;;2.80;96.30;;;;;;4955581;28;20242;-74
2021/11/10 16:56:08;;;;;;;32.10;18.70;;;2.90;96.30;;;;;;4968798;28;20178;-74
2021/11/10 16:58:38;;;;;;;25.23;16.03;;;2.80;96.30;;;;;;4976484;28;20175;-74
2021/11/10 17:01:06;;;;;;;31.87;19.60;;;2.80;96.30;;;;;;4975580;28;20448;-74
2021/11/10 17:03:32;;;;;;;31.23;19.10;;;2.80;96.30;;;;;;4976095;28;20426;-74
2021/11/10 17:05:59;;;;;;;33.00;20.97;;;2.80;96.30;;;;;;4976542;28;20496;-74
2021/11/10 17:08:25;;;;;;;33.10;20.63;;;2.70;96.30;;;;;;4976209;28;20413;-74